Time;durP1;ratioP1;P1;durP2;ratioP2;P2;SDS_P1;SDS_P2;PMS_P1;PMS_P2;Temp;Humidity;BMP_temperature;BMP_pressure;BME280_temperature;BME280_humidity;BME280_pressure;Samples;Min_cycle;Max_cycle;Signal;HPM_P1;HPM_P2
2022/06/20 00:00:22;;;;;;;5.57;2.50;;;18.10;90.30;;;;;;5011999;28;20450;-52
2022/06/20 00:02:51;;;;;;;8.53;2.10;;;18.50;90.80;;;;;;5012119;28;20960;-52
2022/06/20 00:05:20;;;;;;;5.53;2.10;;;18.30;91.20;;;;;;5012241;28;20475;-53
2022/06/20 00:07:48;;;;;;;4.87;2.20;;;18.20;91.40;;;;;;5012494;28;20797;-52
2022/06/20 00:10:17;;;;;;;4.97;2.13;;;18.20;91.70;;;;;;5011866;28;20440;-52
2022/06/20 00:12:44;;;;;;;6.20;2.23;;;18.10;92.00;;;;;;5012221;28;21005;-52
2022/06/20 00:15:21;;;;;;;4.00;2.03;;;18.10;92.60;;;;;;4994475;28;20459;-52
2022/06/20 00:17:48;;;;;;;5.23;2.70;;;17.90;92.70;;;;;;5012190;28;20423;-52
2022/06/20 00:20:16;;;;;;;4.40;2.20;;;18.20;92.90;;;;;;5011730;28;20447;-52
2022/06/20 00:22:42;;;;;;;4.50;2.53;;;17.90;93.10;;;;;;5012200;28;20465;-53
2022/06/20 00:25:10;;;;;;;5.47;2.10;;;17.80;93.40;;;;;;5011958;28;20942;-52
2022/06/20 00:27:37;;;;;;;3.60;1.80;;;17.70;93.30;;;;;;5012359;28;20433;-52
2022/06/20 00:30:06;;;;;;;6.63;3.07;;;17.90;93.50;;;;;;4993973;28;20553;-52
2022/06/20 00:32:34;;;;;;;6.60;2.40;;;18.20;93.70;;;;;;5011959;28;20442;-53
2022/06/20 00:35:02;;;;;;;5.87;2.50;;;17.80;93.50;;;;;;5012061;28;20429;-52
2022/06/20 00:37:28;;;;;;;10.47;3.00;;;18.20;94.00;;;;;;5011166;28;20530;-52
2022/06/20 00:39:55;;;;;;;3.50;2.40;;;18.00;94.20;;;;;;5011775;28;20446;-52
2022/06/20 00:42:22;;;;;;;8.00;3.27;;;17.80;94.10;;;;;;5011749;28;20438;-52
2022/06/20 00:44:53;;;;;;;5.03;2.50;;;17.90;94.30;;;;;;5012385;28;20456;-52
2022/06/20 00:47:23;;;;;;;5.10;2.57;;;17.70;94.20;;;;;;5011794;28;20486;-53
2022/06/20 00:49:57;;;;;;;6.07;2.20;;;17.90;94.40;;;;;;5011347;28;20429;-53
2022/06/20 00:52:30;;;;;;;7.10;2.77;;;18.20;95.20;;;;;;5011747;28;20445;-53
2022/06/20 00:55:02;;;;;;;4.13;2.83;;;17.80;94.60;;;;;;5011592;28;20913;-51
2022/06/20 00:57:32;;;;;;;8.10;2.73;;;17.60;94.60;;;;;;5011798;28;20430;-53
2022/06/20 01:00:06;;;;;;;6.00;3.10;;;17.90;94.60;;;;;;5011171;28;20437;-52
2022/06/20 01:02:35;;;;;;;7.40;3.97;;;17.80;94.80;;;;;;5011476;28;20470;-52
2022/06/20 01:05:08;;;;;;;6.27;2.67;;;17.90;94.80;;;;;;5011513;28;20433;-52
2022/06/20 01:07:47;;;;;;;4.57;3.10;;;17.90;94.80;;;;;;5011418;28;20488;-52
2022/06/20 01:10:15;;;;;;;7.47;3.00;;;17.70;94.50;;;;;;5011112;28;20469;-52
2022/06/20 01:12:49;;;;;;;9.67;3.80;;;18.00;94.70;;;;;;5011270;28;20458;-52
2022/06/20 01:15:19;;;;;;;6.30;5.00;;;18.10;94.60;;;;;;5011450;28;20426;-52
2022/06/20 01:17:46;;;;;;;6.27;4.03;;;17.90;94.40;;;;;;5011545;28;20443;-52
2022/06/20 01:20:23;;;;;;;4.93;3.20;;;18.10;94.80;;;;;;5011058;28;20911;-53
2022/06/20 01:22:59;;;;;;;10.80;4.33;;;18.10;95.00;;;;;;5011405;28;20477;-52
2022/06/20 01:25:42;;;;;;;8.10;3.90;;;18.10;95.30;;;;;;5011513;28;20935;-53
2022/06/20 01:28:15;;;;;;;9.30;3.70;;;17.80;95.90;;;;;;5011442;28;20804;-51
2022/06/20 01:30:45;;;;;;;9.40;4.07;;;18.00;95.60;;;;;;5011002;28;20956;-52
2022/06/20 01:33:13;;;;;;;5.37;3.90;;;18.10;96.00;;;;;;5010983;28;20485;-52
2022/06/20 01:38:25;;;;;;;6.37;3.43;;;17.90;96.40;;;;;;5010831;28;20477;-50
2022/06/20 01:43:39;;;;;;;7.27;3.07;;;18.00;97.00;;;;;;5011141;28;20472;-52
2022/06/20 01:46:10;;;;;;;6.80;3.37;;;17.80;97.10;;;;;;5011394;28;20484;-51
2022/06/20 01:48:40;;;;;;;7.80;3.40;;;18.00;97.40;;;;;;5011190;28;20513;-52
2022/06/20 01:51:13;;;;;;;5.93;3.20;;;17.70;97.20;;;;;;5014978;28;20439;-52
2022/06/20 01:53:40;;;;;;;7.33;3.53;;;17.40;97.20;;;;;;5014754;28;20462;-52
2022/06/20 01:56:08;;;;;;;11.90;4.13;;;17.20;97.30;;;;;;5014695;28;20911;-52
2022/06/20 01:58:38;;;;;;;11.07;4.30;;;17.70;97.50;;;;;;5014309;28;20853;-52
2022/06/20 02:01:07;;;;;;;9.10;3.83;;;17.10;97.50;;;;;;5014688;28;20438;-52
2022/06/20 02:03:37;;;;;;;6.40;3.73;;;17.30;97.70;;;;;;5014565;28;20464;-52
2022/06/20 02:06:05;;;;;;;9.90;4.47;;;17.30;97.70;;;;;;5014495;28;20480;-52
2022/06/20 02:08:32;;;;;;;13.00;4.10;;;17.30;97.80;;;;;;5013891;28;20531;-51
2022/06/20 02:11:04;;;;;;;7.10;4.03;;;17.40;98.20;;;;;;5014384;28;20433;-51
2022/06/20 02:13:34;;;;;;;12.90;3.47;;;17.40;98.50;;;;;;5014420;28;20452;-51
2022/06/20 02:16:05;;;;;;;5.83;3.40;;;17.50;98.60;;;;;;5014292;28;20942;-52
2022/06/20 02:18:36;;;;;;;5.27;3.40;;;17.30;98.70;;;;;;5013996;28;20433;-52
2022/06/20 02:21:08;;;;;;;7.23;3.67;;;17.20;98.80;;;;;;5014345;28;20440;-52
2022/06/20 02:23:40;;;;;;;6.90;3.23;;;17.30;99.00;;;;;;5014107;28;20456;-52
2022/06/20 02:26:09;;;;;;;9.10;3.70;;;17.40;99.20;;;;;;5014127;28;20512;-51
2022/06/20 02:28:40;;;;;;;7.00;3.33;;;16.90;99.10;;;;;;4996449;28;20480;-52
2022/06/20 02:31:08;;;;;;;7.67;3.30;;;17.10;99.30;;;;;;5014450;28;20786;-52
2022/06/20 02:33:36;;;;;;;4.50;3.13;;;17.60;99.40;;;;;;5013975;28;20992;-52
2022/06/20 02:36:06;;;;;;;5.03;3.73;;;17.40;99.20;;;;;;4996321;28;20451;-52
2022/06/20 02:38:33;;;;;;;9.67;4.13;;;17.40;99.30;;;;;;4996296;28;20448;-52
2022/06/20 02:41:01;;;;;;;9.70;4.30;;;17.30;99.30;;;;;;5014066;28;20441;-52
2022/06/20 02:43:32;;;;;;;8.10;3.33;;;17.40;99.40;;;;;;5013650;28;20520;-52
2022/06/20 02:46:00;;;;;;;7.27;3.63;;;17.40;99.20;;;;;;5013622;28;20480;-51
2022/06/20 02:48:30;;;;;;;9.33;4.27;;;17.40;99.30;;;;;;5013477;28;20438;-51
2022/06/20 02:51:08;;;;;;;8.50;4.40;;;17.40;99.30;;;;;;5013732;28;20453;-52
2022/06/20 02:53:39;;;;;;;10.00;3.73;;;17.50;99.40;;;;;;5013543;28;20463;-52
2022/06/20 02:56:09;;;;;;;7.80;4.20;;;17.30;99.10;;;;;;5013696;28;20431;-52
2022/06/20 02:58:42;;;;;;;8.70;4.00;;;17.70;99.40;;;;;;5013310;28;20432;-52
2022/06/20 03:01:15;;;;;;;5.87;3.67;;;17.30;99.30;;;;;;5012682;28;20433;-52
2022/06/20 03:03:47;;;;;;;10.87;4.40;;;17.30;99.50;;;;;;5013419;28;20448;-52
2022/06/20 03:06:22;;;;;;;6.37;4.30;;;17.50;99.30;;;;;;5013384;28;20475;-52
2022/06/20 03:08:48;;;;;;;8.40;4.57;;;17.50;99.30;;;;;;5013108;28;20440;-52
2022/06/20 03:11:15;;;;;;;6.93;4.27;;;16.70;99.00;;;;;;5013296;28;20443;-52
2022/06/20 03:13:42;;;;;;;7.37;4.20;;;17.50;99.30;;;;;;5013159;28;20448;-52
2022/06/20 03:16:10;;;;;;;6.90;4.30;;;17.10;99.30;;;;;;5013271;28;20452;-52
2022/06/20 03:18:41;;;;;;;7.33;4.13;;;17.30;99.00;;;;;;5013014;28;20961;-52
2022/06/20 03:21:08;;;;;;;7.50;3.73;;;17.10;98.90;;;;;;5013025;28;20442;-52
2022/06/20 03:23:37;;;;;;;8.00;4.47;;;17.40;99.00;;;;;;5012836;28;20452;-52
2022/06/20 03:26:06;;;;;;;9.17;3.90;;;17.80;99.10;;;;;;5012902;28;20444;-52
2022/06/20 03:28:34;;;;;;;6.80;4.23;;;17.60;98.90;;;;;;5012752;28;20438;-52
2022/06/20 03:31:01;;;;;;;7.90;4.07;;;17.60;99.10;;;;;;5012882;28;20447;-52
2022/06/20 03:33:29;;;;;;;6.00;3.97;;;17.70;98.90;;;;;;5012753;28;20464;-52
2022/06/20 03:35:59;;;;;;;8.50;4.00;;;17.90;99.00;;;;;;5012787;28;20914;-52
2022/06/20 03:38:27;;;;;;;10.83;3.77;;;17.40;98.80;;;;;;5012576;28;20434;-52
2022/06/20 03:40:55;;;;;;;6.30;3.10;;;17.60;99.10;;;;;;5012827;28;20444;-52
2022/06/20 03:43:24;;;;;;;6.57;3.37;;;17.30;98.80;;;;;;5012539;28;20480;-52
2022/06/20 03:45:57;;;;;;;7.57;3.30;;;17.70;98.90;;;;;;5012561;28;20934;-51
2022/06/20 03:48:30;;;;;;;6.30;3.03;;;17.60;98.60;;;;;;5012229;28;20495;-51
2022/06/20 03:51:01;;;;;;;6.67;3.47;;;17.40;98.50;;;;;;5012619;28;20422;-53
2022/06/20 03:53:32;;;;;;;4.40;2.97;;;17.40;98.40;;;;;;5012488;28;20453;-52
2022/06/20 03:56:15;;;;;;;6.13;3.30;;;17.40;98.20;;;;;;5012567;28;20441;-52
2022/06/20 03:58:49;;;;;;;9.03;3.87;;;17.60;98.20;;;;;;5012099;28;20422;-51
2022/06/20 04:01:19;;;;;;;5.20;2.90;;;17.50;97.80;;;;;;5012341;28;20438;-52
2022/06/20 04:03:51;;;;;;;7.83;3.80;;;17.60;97.70;;;;;;5012306;28;20465;-52
2022/06/20 04:06:25;;;;;;;7.73;3.10;;;17.60;97.60;;;;;;5012254;28;20433;-52
2022/06/20 04:11:47;;;;;;;6.30;3.73;;;17.70;97.50;;;;;;5012088;28;20926;-52
2022/06/20 04:14:20;;;;;;;7.27;2.97;;;17.70;97.40;;;;;;4994435;28;20497;-52
2022/06/20 04:16:50;;;;;;;5.73;3.00;;;17.60;97.30;;;;;;4994351;28;20466;-52
2022/06/20 04:19:23;;;;;;;5.50;2.50;;;17.90;97.30;;;;;;4994243;28;20822;-52
2022/06/20 04:21:53;;;;;;;5.53;3.10;;;17.90;96.80;;;;;;5012169;28;20449;-52
2022/06/20 04:24:25;;;;;;;6.73;2.90;;;18.20;96.80;;;;;;5012174;28;20466;-51
2022/06/20 04:26:58;;;;;;;8.80;3.30;;;18.20;96.60;;;;;;5011962;28;20505;-52
2022/06/20 04:29:32;;;;;;;4.10;2.93;;;18.30;96.30;;;;;;5012065;28;20439;-51
2022/06/20 04:32:05;;;;;;;5.40;3.00;;;18.30;96.20;;;;;;5011976;28;20443;-52
2022/06/20 04:34:36;;;;;;;5.23;3.20;;;18.40;96.20;;;;;;5011976;28;20716;-53
2022/06/20 04:37:11;;;;;;;4.83;3.20;;;18.80;96.40;;;;;;5011920;28;20441;-52
2022/06/20 04:39:44;;;;;;;6.73;3.40;;;18.50;95.80;;;;;;5011477;28;20596;-53
2022/06/20 04:42:19;;;;;;;8.93;3.50;;;18.60;95.40;;;;;;5011685;28;20439;-52
2022/06/20 04:44:50;;;;;;;5.20;3.00;;;18.60;95.50;;;;;;5011623;28;20521;-52
2022/06/20 04:47:28;;;;;;;4.07;3.17;;;18.60;95.40;;;;;;5011463;28;20493;-52
2022/06/20 04:49:55;;;;;;;8.10;3.00;;;18.70;95.40;;;;;;5011582;28;20533;-53
2022/06/20 04:52:25;;;;;;;9.93;3.50;;;18.70;95.30;;;;;;5011794;28;20449;-53
2022/06/20 04:54:52;;;;;;;4.37;2.83;;;18.50;95.10;;;;;;4993945;28;20454;-53
2022/06/20 04:57:20;;;;;;;5.40;3.30;;;18.60;95.40;;;;;;5011452;28;20434;-52
2022/06/20 04:59:47;;;;;;;8.40;3.30;;;18.60;95.80;;;;;;5011381;28;20431;-53
2022/06/20 05:02:18;;;;;;;8.23;3.47;;;18.70;96.20;;;;;;4993879;28;20453;-53
2022/06/20 05:04:50;;;;;;;5.10;3.00;;;18.20;96.20;;;;;;5011504;28;20487;-51
2022/06/20 05:07:23;;;;;;;5.77;3.50;;;18.10;96.40;;;;;;5011123;28;20481;-52
2022/06/20 05:09:55;;;;;;;10.33;4.43;;;18.00;96.90;;;;;;5010911;28;20438;-51
2022/06/20 05:12:29;;;;;;;6.37;3.50;;;17.50;97.30;;;;;;4993678;28;20485;-51
2022/06/20 05:15:02;;;;;;;6.50;4.10;;;17.90;97.70;;;;;;5011510;28;20837;-52
2022/06/20 05:17:31;;;;;;;9.10;4.77;;;17.20;97.70;;;;;;5011342;28;20473;-53
2022/06/20 05:20:06;;;;;;;8.10;4.57;;;17.60;98.40;;;;;;5011183;28;20441;-52
2022/06/20 05:22:38;;;;;;;8.60;5.50;;;17.80;98.70;;;;;;5010711;28;20774;-52
2022/06/20 05:25:08;;;;;;;8.50;5.87;;;17.60;99.00;;;;;;5013814;28;20440;-53
2022/06/20 05:27:44;;;;;;;10.40;5.43;;;17.70;99.30;;;;;;5015122;28;20479;-53
2022/06/20 05:30:17;;;;;;;10.17;5.50;;;17.40;99.90;;;;;;5014764;28;20435;-52
2022/06/20 05:32:49;;;;;;;11.80;5.80;;;17.50;99.90;;;;;;5014441;28;20468;-52
2022/06/20 05:35:21;;;;;;;7.70;5.93;;;17.80;99.90;;;;;;5014868;28;20816;-52
2022/06/20 05:37:51;;;;;;;8.03;5.60;;;17.40;99.90;;;;;;5014616;28;20471;-51
2022/06/20 05:40:25;;;;;;;10.97;5.60;;;17.40;99.90;;;;;;5014627;28;20422;-51
2022/06/20 05:42:53;;;;;;;9.67;5.13;;;17.10;99.90;;;;;;5014202;28;20472;-53
2022/06/20 05:45:23;;;;;;;8.97;5.03;;;17.30;99.90;;;;;;5014695;28;20514;-52
2022/06/20 05:47:53;;;;;;;8.87;4.33;;;17.20;99.90;;;;;;5014205;28;20491;-52
2022/06/20 05:50:43;;;;;;;7.90;5.80;;;16.90;99.90;;;;;;5014364;28;20438;-52
2022/06/20 05:53:17;;;;;;;11.60;5.10;;;17.10;99.90;;;;;;5013752;28;20460;-52
2022/06/20 05:55:46;;;;;;;11.23;5.93;;;16.90;99.90;;;;;;5014385;28;20445;-53
2022/06/20 05:58:21;;;;;;;14.73;6.83;;;17.10;99.90;;;;;;5013707;28;20443;-52
2022/06/20 06:00:51;;;;;;;9.23;6.33;;;17.30;99.90;;;;;;5014106;28;20939;-52
2022/06/20 06:03:22;;;;;;;14.70;5.80;;;17.30;99.90;;;;;;5014509;28;20507;-53
2022/06/20 06:05:53;;;;;;;13.00;7.10;;;16.90;99.90;;;;;;5014237;28;20742;-52
2022/06/20 06:08:27;;;;;;;16.83;7.30;;;17.10;99.90;;;;;;5014433;28;20484;-53
2022/06/20 06:10:59;;;;;;;18.60;6.80;;;17.50;99.90;;;;;;5014084;28;20469;-52
2022/06/20 06:13:41;;;;;;;11.23;5.77;;;17.20;99.90;;;;;;5013886;28;20460;-52
2022/06/20 06:19:07;;;;;;;8.63;6.80;;;16.90;99.90;;;;;;5013251;28;20949;-53
2022/06/20 06:21:36;;;;;;;10.63;8.00;;;16.40;99.90;;;;;;5013882;28;20428;-52
2022/06/20 06:24:05;;;;;;;12.53;8.17;;;16.20;99.90;;;;;;5013818;28;20940;-53
2022/06/20 06:26:35;;;;;;;9.83;7.07;;;16.70;99.90;;;;;;5013530;28;20436;-53
2022/06/20 06:29:05;;;;;;;18.07;7.57;;;16.00;99.90;;;;;;5012716;28;20538;-53
2022/06/20 06:31:37;;;;;;;12.23;6.33;;;16.40;99.90;;;;;;5013569;28;20437;-52
2022/06/20 06:34:12;;;;;;;10.20;7.87;;;16.40;99.90;;;;;;5013214;28;20960;-53
2022/06/20 06:36:43;;;;;;;10.03;7.80;;;16.40;99.90;;;;;;5011948;28;20535;-52
2022/06/20 06:39:15;;;;;;;10.10;6.90;;;16.40;99.90;;;;;;5013471;28;20834;-54
2022/06/20 06:41:46;;;;;;;5.90;5.30;;;16.60;99.90;;;;;;5013194;28;20433;-51
2022/06/20 06:44:18;;;;;;;8.40;6.70;;;16.70;99.90;;;;;;5013885;28;20472;-54
2022/06/20 06:46:49;;;;;;;8.57;5.83;;;16.80;99.90;;;;;;5013062;28;20494;-53
2022/06/20 06:49:24;;;;;;;9.20;6.70;;;16.90;99.90;;;;;;4994908;28;20487;-54
2022/06/20 06:51:57;;;;;;;9.80;7.47;;;17.10;99.90;;;;;;5012957;28;20439;-53
2022/06/20 06:54:28;;;;;;;8.33;5.73;;;17.20;99.90;;;;;;5012421;28;20810;-52
2022/06/20 06:56:59;;;;;;;8.77;5.83;;;17.40;99.90;;;;;;5013215;28;20892;-52
2022/06/20 06:59:33;;;;;;;6.07;5.57;;;17.30;99.90;;;;;;5012771;28;20447;-52
2022/06/20 07:02:03;;;;;;;6.20;5.60;;;17.40;99.90;;;;;;5012888;28;20948;-53
2022/06/20 07:04:34;;;;;;;8.10;6.40;;;17.60;99.90;;;;;;5012858;28;20481;-52
2022/06/20 07:07:06;;;;;;;7.37;5.80;;;17.60;99.90;;;;;;5013419;28;20455;-53
2022/06/20 07:09:35;;;;;;;7.20;6.20;;;18.10;99.90;;;;;;5011594;28;20545;-52
2022/06/20 07:12:07;;;;;;;7.50;6.00;;;17.90;99.90;;;;;;5007933;28;20464;-51
2022/06/20 07:14:41;;;;;;;8.23;7.00;;;17.70;99.90;;;;;;5012882;28;20473;-51
2022/06/20 07:17:15;;;;;;;8.70;7.10;;;17.70;99.90;;;;;;5014185;28;20560;-51
2022/06/20 07:19:48;;;;;;;6.93;6.27;;;17.60;99.90;;;;;;5012476;28;20442;-51
2022/06/20 07:22:17;;;;;;;6.80;6.20;;;17.60;99.90;;;;;;5012461;28;20887;-52
2022/06/20 07:24:45;;;;;;;10.00;7.57;;;17.80;99.90;;;;;;5011711;28;20809;-52
2022/06/20 07:27:16;;;;;;;11.10;7.50;;;17.60;99.90;;;;;;5011984;28;20534;-52
2022/06/20 07:29:49;;;;;;;16.30;8.80;;;17.40;99.90;;;;;;5011731;28;20460;-52
2022/06/20 07:32:22;;;;;;;11.03;7.67;;;17.70;99.90;;;;;;5011960;28;20516;-51
2022/06/20 07:34:52;;;;;;;8.83;7.37;;;17.50;99.90;;;;;;5012335;28;20935;-51
2022/06/20 07:37:24;;;;;;;9.20;7.90;;;17.50;99.90;;;;;;5011695;28;20419;-51
2022/06/20 07:39:56;;;;;;;8.33;6.77;;;17.50;99.90;;;;;;5011334;28;20815;-51
2022/06/20 07:42:26;;;;;;;9.30;7.07;;;17.60;99.90;;;;;;5011890;28;20596;-51
2022/06/20 07:45:00;;;;;;;8.00;7.30;;;17.30;99.90;;;;;;5011811;28;20450;-51
2022/06/20 07:47:34;;;;;;;7.30;6.60;;;17.00;99.90;;;;;;4993607;28;20475;-50
2022/06/20 07:50:05;;;;;;;10.17;7.27;;;17.50;99.90;;;;;;4994164;28;20535;-51
2022/06/20 07:52:36;;;;;;;8.70;7.90;;;17.50;99.90;;;;;;5011837;28;20442;-51
2022/06/20 07:55:10;;;;;;;10.53;7.03;;;17.50;99.90;;;;;;4992749;28;20755;-51
2022/06/20 07:57:41;;;;;;;9.87;7.83;;;17.90;99.90;;;;;;5009196;28;20459;-52
2022/06/20 08:00:14;;;;;;;10.70;8.43;;;17.60;99.90;;;;;;5011605;28;20433;-53
2022/06/20 08:02:45;;;;;;;9.13;7.80;;;17.40;99.90;;;;;;5012073;28;20460;-53
2022/06/20 08:05:17;;;;;;;8.30;7.50;;;17.60;99.90;;;;;;5011303;28;20503;-52
2022/06/20 08:07:51;;;;;;;10.87;8.70;;;17.60;99.90;;;;;;4993909;28;21104;-52
2022/06/20 08:10:24;;;;;;;9.17;8.03;;;17.70;99.90;;;;;;5011772;28;20445;-52
2022/06/20 08:12:55;;;;;;;7.50;6.70;;;17.50;99.90;;;;;;5012112;28;20996;-53
2022/06/20 08:15:27;;;;;;;9.80;8.20;;;17.50;99.90;;;;;;5012154;28;20914;-52
2022/06/20 08:17:54;;;;;;;11.10;7.50;;;17.70;99.90;;;;;;5011610;28;20436;-52
2022/06/20 08:20:24;;;;;;;9.60;7.90;;;17.70;99.90;;;;;;5011295;28;20461;-52
2022/06/20 08:22:54;;;;;;;9.20;5.93;;;17.60;99.90;;;;;;4994004;28;20516;-54
2022/06/20 08:25:24;;;;;;;9.30;6.40;;;17.60;99.90;;;;;;5011500;28;20420;-54
2022/06/20 08:27:55;;;;;;;8.07;7.03;;;17.80;99.90;;;;;;5010975;28;21025;-53
2022/06/20 08:30:34;;;;;;;7.47;6.60;;;17.70;99.90;;;;;;4992982;28;20456;-54
2022/06/20 08:33:06;;;;;;;7.70;6.40;;;17.80;99.90;;;;;;4991882;28;20459;-53
2022/06/20 08:35:39;;;;;;;8.87;7.30;;;17.80;99.90;;;;;;4991611;28;20477;-53
2022/06/20 08:38:12;;;;;;;7.70;6.55;;;17.90;99.90;;;;;;4990713;28;20433;-53
2022/06/20 08:41:20;;;;;;;9.53;7.50;;;18.10;99.90;;;;;;4991400;28;20200;-54
2022/06/20 08:44:07;;;;;;;8.60;6.38;;;18.30;99.90;;;;;;4930208;29;20495;-52
2022/06/20 08:47:11;;;;;;;5.60;5.10;;;18.70;99.90;;;;;;4989998;28;20202;-53
2022/06/20 08:50:17;;;;;;;7.60;5.70;;;18.50;99.90;;;;;;5010620;28;20869;-54
2022/06/20 08:53:13;;;;;;;8.67;5.63;;;18.50;99.90;;;;;;5010980;28;20462;-52
2022/06/20 08:56:13;;;;;;;6.47;5.03;;;18.20;99.90;;;;;;5010787;28;20448;-54
2022/06/20 08:58:54;;;;;;;7.80;6.17;;;18.20;99.90;;;;;;5009580;28;20437;-53
2022/06/20 09:01:29;;;;;;;6.23;5.30;;;18.10;99.90;;;;;;5011154;28;20446;-54
2022/06/20 09:04:23;;;;;;;6.60;5.80;;;18.00;99.90;;;;;;4991904;28;20435;-53
2022/06/20 09:07:17;;;;;;;8.17;6.03;;;18.40;99.90;;;;;;5010732;28;20210;-53
2022/06/20 09:10:03;;;;;;;6.53;5.40;;;18.10;99.90;;;;;;5010390;28;20469;-54
2022/06/20 09:12:50;;;;;;;7.70;6.00;;;18.10;99.90;;;;;;5010914;28;20447;-53
2022/06/20 09:15:33;;;;;;;6.50;5.37;;;18.00;99.90;;;;;;5010884;28;20437;-53
2022/06/20 09:18:05;;;;;;;6.57;5.60;;;18.00;99.90;;;;;;5004891;28;20431;-52
2022/06/20 09:20:40;;;;;;;6.60;5.90;;;18.20;99.90;;;;;;5010399;28;20210;-53
2022/06/20 09:23:24;;;;;;;7.07;4.90;;;17.70;99.90;;;;;;5010676;28;20456;-52
2022/06/20 09:25:57;;;;;;;11.33;6.77;;;18.20;99.90;;;;;;5010503;28;20437;-53
2022/06/20 09:28:45;;;;;;;6.33;5.70;;;18.00;99.90;;;;;;5010422;28;20477;-53
2022/06/20 09:31:29;;;;;;;7.13;5.40;;;18.00;99.90;;;;;;5010838;28;21003;-53
2022/06/20 09:34:09;;;;;;;8.30;5.33;;;17.90;99.90;;;;;;5010818;28;20551;-53
2022/06/20 09:36:58;;;;;;;5.23;4.43;;;17.90;99.90;;;;;;5010235;28;20434;-53
2022/06/20 09:39:41;;;;;;;6.60;5.47;;;18.10;99.90;;;;;;5010144;28;20499;-53
2022/06/20 09:42:19;;;;;;;7.47;5.27;;;17.90;99.90;;;;;;5010422;28;20438;-54
2022/06/20 09:44:56;;;;;;;5.97;5.07;;;17.90;99.90;;;;;;5010208;28;20513;-53
2022/06/20 09:47:32;;;;;;;11.00;5.60;;;18.00;99.90;;;;;;5010493;28;20494;-54
2022/06/20 09:50:16;;;;;;;6.90;4.80;;;18.30;99.90;;;;;;5010050;28;20503;-53
2022/06/20 09:52:57;;;;;;;6.40;4.90;;;18.00;99.90;;;;;;5010444;28;20454;-53
2022/06/20 09:55:34;;;;;;;7.10;5.00;;;18.00;99.90;;;;;;5010356;28;20431;-53
2022/06/20 09:58:09;;;;;;;6.83;5.43;;;18.10;99.90;;;;;;5010472;28;20456;-53
2022/06/20 10:00:42;;;;;;;9.90;6.30;;;18.00;99.90;;;;;;5010115;28;20439;-53
2022/06/20 10:03:16;;;;;;;10.60;6.30;;;18.80;99.90;;;;;;5010234;28;20449;-53
2022/06/20 10:05:50;;;;;;;8.07;6.10;;;18.10;99.90;;;;;;5010036;28;20437;-53
2022/06/20 10:08:28;;;;;;;6.83;6.07;;;17.80;99.90;;;;;;5009910;28;20485;-53
2022/06/20 10:10:58;;;;;;;7.77;6.23;;;18.00;99.90;;;;;;5012391;28;20446;-53
2022/06/20 10:13:34;;;;;;;9.30;5.90;;;17.90;99.90;;;;;;5013772;28;20453;-53
2022/06/20 10:16:08;;;;;;;6.93;6.20;;;18.00;99.90;;;;;;5013820;28;20519;-52
2022/06/20 10:18:43;;;;;;;6.47;5.53;;;18.00;99.90;;;;;;5013494;28;20789;-52
2022/06/20 10:21:15;;;;;;;5.40;4.90;;;17.90;99.90;;;;;;5013925;28;20935;-54
2022/06/20 10:24:04;;;;;;;6.70;5.70;;;17.80;99.90;;;;;;4995508;28;20576;-53
2022/06/20 10:26:42;;;;;;;7.27;5.50;;;17.80;99.90;;;;;;5013710;28;20859;-53
2022/06/20 10:29:20;;;;;;;8.27;6.00;;;17.80;99.90;;;;;;5013291;28;20864;-53
2022/06/20 10:31:56;;;;;;;9.43;6.00;;;17.60;99.90;;;;;;5013622;28;20429;-53
2022/06/20 10:34:38;;;;;;;8.30;6.10;;;17.90;99.90;;;;;;5012878;28;20456;-53
2022/06/20 10:37:19;;;;;;;5.80;5.00;;;17.90;99.90;;;;;;5012987;28;20445;-53
2022/06/20 10:39:55;;;;;;;7.87;6.27;;;17.80;99.90;;;;;;5012920;28;20430;-53
2022/06/20 10:42:32;;;;;;;8.60;6.33;;;17.70;99.90;;;;;;5012382;28;20544;-53
2022/06/20 10:45:25;;;;;;;7.90;6.50;;;17.60;99.90;;;;;;5013236;28;20957;-53
2022/06/20 10:48:29;;;;;;;7.37;5.67;;;17.70;99.90;;;;;;5013114;28;20439;-53
2022/06/20 10:51:03;;;;;;;9.13;5.50;;;17.70;99.90;;;;;;5012861;28;20448;-53
2022/06/20 10:53:38;;;;;;;6.33;5.00;;;17.40;99.90;;;;;;5012981;28;20464;-53
2022/06/20 10:56:13;;;;;;;6.93;5.47;;;17.50;99.90;;;;;;4995212;28;20515;-53
2022/06/20 10:58:53;;;;;;;9.50;5.90;;;17.40;99.90;;;;;;5012678;28;20439;-52
2022/06/20 11:01:25;;;;;;;8.20;5.07;;;17.70;99.90;;;;;;5012773;28;20468;-53
2022/06/20 11:04:09;;;;;;;5.70;4.67;;;17.70;99.90;;;;;;5012517;28;20455;-52
2022/06/20 11:06:48;;;;;;;7.67;4.40;;;17.70;99.90;;;;;;5012609;28;20441;-53
2022/06/20 11:09:23;;;;;;;6.43;4.00;;;17.60;99.90;;;;;;4994426;28;20817;-52
2022/06/20 11:11:59;;;;;;;4.80;4.40;;;17.90;99.90;;;;;;4994708;28;20458;-52
2022/06/20 11:14:38;;;;;;;7.37;4.90;;;17.80;99.90;;;;;;5012315;28;20974;-53
2022/06/20 11:17:17;;;;;;;7.83;4.70;;;17.90;99.90;;;;;;5012322;28;20823;-53
2022/06/20 11:19:54;;;;;;;5.70;4.37;;;17.90;99.90;;;;;;4994698;28;20461;-52
2022/06/20 11:22:30;;;;;;;4.97;3.77;;;18.00;99.90;;;;;;5011108;28;20437;-53
2022/06/20 11:25:14;;;;;;;4.93;4.27;;;18.20;99.90;;;;;;4994584;28;20470;-54
2022/06/20 11:27:57;;;;;;;7.50;4.10;;;18.00;99.90;;;;;;5012377;28;20437;-53
2022/06/20 11:30:32;;;;;;;4.40;4.00;;;18.00;99.90;;;;;;5012026;28;21032;-53
2022/06/20 11:34:00;;;;;;;8.90;6.07;;;18.30;99.90;;;;;;5012459;28;20508;-53
2022/06/20 11:36:13;;;;;;;7.80;4.83;;;18.20;99.90;;;;;;5012413;28;20498;-53
2022/06/20 11:38:59;;;;;;;4.77;4.20;;;18.30;99.90;;;;;;5012552;28;20433;-54
2022/06/20 11:41:33;;;;;;;7.77;5.57;;;18.20;99.90;;;;;;5012210;28;20475;-53
2022/06/20 11:44:44;;;;;;;6.13;5.13;;;18.10;99.90;;;;;;4994461;28;20481;-53
2022/06/20 11:47:44;;;;;;;6.33;4.20;;;18.30;99.90;;;;;;5012387;28;20871;-52
2022/06/20 11:50:36;;;;;;;6.13;4.17;;;18.30;99.90;;;;;;5000419;28;21020;-52
2022/06/20 11:53:22;;;;;;;5.53;3.10;;;18.30;99.90;;;;;;5011911;28;20472;-53
2022/06/20 11:55:53;;;;;;;5.10;3.17;;;18.40;99.90;;;;;;5011607;28;20452;-53
2022/06/20 11:58:27;;;;;;;4.10;2.67;;;18.40;99.90;;;;;;5011965;28;21025;-52
2022/06/20 12:01:00;;;;;;;3.70;2.80;;;18.40;99.90;;;;;;5012406;28;20945;-52
2022/06/20 12:03:36;;;;;;;3.10;2.40;;;18.40;99.90;;;;;;4994182;28;20971;-52
2022/06/20 12:06:07;;;;;;;5.10;3.10;;;18.40;99.90;;;;;;5012392;28;20442;-53
2022/06/20 12:08:44;;;;;;;3.00;2.57;;;18.10;99.90;;;;;;5011430;28;20444;-53
2022/06/20 12:11:18;;;;;;;3.17;2.87;;;18.50;99.90;;;;;;5011674;28;20429;-52
2022/06/20 12:13:56;;;;;;;4.53;2.87;;;18.40;99.90;;;;;;5011766;28;20993;-52
2022/06/20 12:16:39;;;;;;;4.00;2.33;;;18.60;99.90;;;;;;5011534;28;20439;-54
2022/06/20 12:24:58;;;;;;;3.07;2.10;;;18.50;99.90;;;;;;5011528;28;20435;-53
2022/06/20 12:27:27;;;;;;;2.70;1.93;;;18.40;99.90;;;;;;5011558;28;20440;-53
2022/06/20 12:29:54;;;;;;;4.40;2.23;;;18.70;99.90;;;;;;5011893;28;20494;-53
2022/06/20 12:32:27;;;;;;;3.23;2.33;;;18.60;99.90;;;;;;5012109;28;20783;-53
2022/06/20 12:34:57;;;;;;;3.40;2.43;;;18.50;99.90;;;;;;5011680;28;20932;-52
2022/06/20 12:37:33;;;;;;;3.10;2.37;;;18.40;99.90;;;;;;5012144;28;20440;-53
2022/06/20 12:40:04;;;;;;;4.77;3.73;;;18.60;99.90;;;;;;5010967;28;20436;-53
2022/06/20 12:42:43;;;;;;;7.33;2.50;;;18.20;99.90;;;;;;5011253;28;20436;-53
2022/06/20 12:45:53;;;;;;;3.27;2.47;;;18.60;99.90;;;;;;4994506;28;20459;-53
2022/06/20 12:48:37;;;;;;;4.57;2.40;;;18.60;99.90;;;;;;4950718;29;20451;-53
2022/06/20 12:51:13;;;;;;;6.90;2.60;;;18.90;99.90;;;;;;4951028;29;20485;-53
2022/06/20 12:53:54;;;;;;;4.60;2.90;;;18.60;99.90;;;;;;4992307;28;20469;-53
2022/06/20 12:56:34;;;;;;;3.13;2.47;;;18.70;99.90;;;;;;5011032;28;20533;-53
2022/06/20 12:59:41;;;;;;;2.70;1.93;;;18.80;99.90;;;;;;5010682;28;20439;-53
2022/06/20 13:02:14;;;;;;;2.50;2.30;;;18.60;99.90;;;;;;5010705;28;20439;-53
2022/06/20 13:05:05;;;;;;;2.60;2.40;;;18.80;99.90;;;;;;5010860;28;20803;-53
2022/06/20 13:08:03;;;;;;;3.10;2.37;;;18.80;99.90;;;;;;5010982;28;20507;-53
2022/06/20 13:10:41;;;;;;;4.23;2.17;;;19.40;99.90;;;;;;5010778;28;20490;-53
2022/06/20 13:13:30;;;;;;;2.93;2.17;;;18.60;99.90;;;;;;5010937;28;20482;-53
2022/06/20 13:16:04;;;;;;;6.13;2.50;;;18.80;99.90;;;;;;5010682;28;20448;-53
2022/06/20 13:19:12;;;;;;;2.27;1.87;;;19.10;99.90;;;;;;5010759;28;20860;-53
2022/06/20 13:21:45;;;;;;;2.80;1.83;;;19.10;99.90;;;;;;4950315;29;20465;-52
2022/06/20 13:24:29;;;;;;;3.50;1.90;;;19.20;99.90;;;;;;4998792;28;20493;-52
2022/06/20 13:27:08;;;;;;;3.10;2.50;;;19.50;99.90;;;;;;4992718;28;20455;-54
2022/06/20 13:29:45;;;;;;;3.33;2.60;;;19.30;99.90;;;;;;5010487;28;20475;-54
2022/06/20 13:32:20;;;;;;;3.40;2.13;;;19.30;99.90;;;;;;4992781;28;20960;-54
2022/06/20 13:34:54;;;;;;;4.73;2.07;;;19.30;99.90;;;;;;5010665;28;20435;-54
2022/06/20 13:37:42;;;;;;;3.47;2.00;;;19.50;99.90;;;;;;5010566;28;20432;-54
2022/06/20 13:40:26;;;;;;;2.33;1.63;;;19.60;99.90;;;;;;5010759;28;20481;-53